Time;durP1;ratioP1;P1;durP2;ratioP2;P2;SDS_P1;SDS_P2;PMS_P1;PMS_P2;Temp;Humidity;BMP_temperature;BMP_pressure;BME280_temperature;BME280_humidity;BME280_pressure;Samples;Min_cycle;Max_cycle;Signal;HPM_P1;HPM_P2
2023/07/22 00:01:55;;;;;;;4.93;1.10;;;16.90;99.90;;;16.02;100.00;97587.66;4935982;28;20126;-76
2023/07/22 00:04:22;;;;;;;6.22;1.48;;;16.90;99.90;;;15.99;100.00;97574.78;4936774;28;20155;-76
2023/07/22 00:06:49;;;;;;;6.97;2.42;;;17.00;99.90;;;15.84;100.00;97576.59;4934016;28;20051;-76
2023/07/22 00:09:16;;;;;;;9.25;3.80;;;17.00;99.90;;;15.93;100.00;97585.63;4937994;28;20095;-76
2023/07/22 00:11:43;;;;;;;4.53;1.83;;;17.00;99.90;;;15.86;100.00;97586.97;4935006;28;20058;-76
2023/07/22 00:14:10;;;;;;;5.43;1.77;;;16.90;99.90;;;15.75;100.00;97585.03;4939215;28;20128;-76
2023/07/22 00:16:37;;;;;;;4.63;2.03;;;16.80;99.90;;;15.83;100.00;97584.56;4938054;28;20826;-76
2023/07/22 00:19:04;;;;;;;2.65;1.48;;;16.90;99.90;;;15.71;100.00;97586.16;4945298;28;20146;-76
2023/07/22 00:21:31;;;;;;;3.17;1.30;;;16.80;99.90;;;15.87;100.00;97586.88;4940601;28;20496;-76
2023/07/22 00:23:59;;;;;;;2.90;1.48;;;16.80;99.90;;;15.89;100.00;97581.53;4934915;28;20128;-76
2023/07/22 00:26:26;;;;;;;4.22;1.70;;;16.90;99.90;;;15.68;100.00;97583.72;4941063;28;20516;-76
2023/07/22 00:28:54;;;;;;;2.97;1.00;;;16.90;99.90;;;15.76;100.00;97586.72;4940109;28;20054;-76
2023/07/22 00:31:21;;;;;;;3.13;1.17;;;16.80;99.90;;;15.72;100.00;97580.00;4939953;28;20054;-76
2023/07/22 00:33:49;;;;;;;2.33;1.30;;;16.60;99.90;;;15.67;100.00;97580.25;4943057;28;20047;-76
2023/07/22 00:36:16;;;;;;;2.47;1.00;;;16.60;99.90;;;15.66;100.00;97575.94;4939903;28;20059;-76
2023/07/22 00:38:43;;;;;;;3.60;1.00;;;16.50;99.90;;;15.68;100.00;97583.72;4943838;28;20059;-76
2023/07/22 00:41:12;;;;;;;3.22;1.00;;;16.40;99.90;;;15.75;100.00;97573.72;4933379;28;20043;-76
2023/07/22 00:43:40;;;;;;;3.20;1.08;;;16.40;99.90;;;15.65;100.00;97576.91;4942698;28;20208;-76
2023/07/22 00:46:09;;;;;;;3.20;1.23;;;16.40;99.90;;;15.70;100.00;97574.00;4944454;28;20131;-76
2023/07/22 00:48:38;;;;;;;5.93;1.17;;;16.40;99.90;;;15.69;100.00;97575.78;4941285;28;20279;-76
2023/07/22 00:51:05;;;;;;;1.88;1.15;;;16.40;99.90;;;15.46;100.00;97582.47;4939145;28;20503;-76
2023/07/22 00:53:32;;;;;;;2.72;1.02;;;16.30;99.90;;;15.57;100.00;97573.06;4941740;28;20055;-76
2023/07/22 00:55:59;;;;;;;3.15;1.30;;;16.20;99.90;;;15.40;100.00;97585.44;4940085;28;20055;-76
2023/07/22 00:58:26;;;;;;;4.50;1.13;;;16.20;99.90;;;15.47;100.00;97591.97;4939579;28;20118;-76
2023/07/22 01:00:54;;;;;;;3.85;1.30;;;16.20;99.90;;;15.64;100.00;97588.28;4940669;28;20158;-76
2023/07/22 01:03:25;;;;;;;3.55;1.40;;;16.20;99.90;;;15.67;100.00;97587.28;4940193;28;20050;-76
2023/07/22 01:05:54;;;;;;;2.83;1.08;;;16.30;99.90;;;15.72;100.00;97587.03;4941692;28;20059;-76
2023/07/22 01:08:22;;;;;;;3.17;1.00;;;16.40;99.90;;;15.91;100.00;97587.50;4938383;28;20244;-76
2023/07/22 01:10:49;;;;;;;3.65;1.27;;;16.50;99.90;;;16.02;100.00;97579.81;4941184;28;20047;-76
2023/07/22 01:13:16;;;;;;;3.83;1.10;;;16.60;99.90;;;16.15;100.00;97579.88;4941263;28;20679;-76
2023/07/22 01:15:43;;;;;;;4.07;1.40;;;16.70;99.90;;;16.07;100.00;97585.59;4945056;28;20109;-76
2023/07/22 01:18:10;;;;;;;5.97;2.72;;;16.80;99.90;;;16.03;100.00;97598.97;4937958;28;20310;-76
2023/07/22 01:20:38;;;;;;;4.18;1.60;;;16.90;99.90;;;16.02;100.00;97603.38;4941372;28;20051;-76
2023/07/22 01:23:06;;;;;;;2.88;1.27;;;16.90;99.90;;;15.96;100.00;97609.00;4941012;28;20089;-76
2023/07/22 01:25:34;;;;;;;5.00;1.67;;;16.80;99.90;;;15.89;100.00;97619.00;4925460;28;20146;-73
2023/07/22 01:28:01;;;;;;;4.03;1.33;;;16.80;99.90;;;15.85;100.00;97627.16;4955299;28;20047;-74
2023/07/22 01:30:27;;;;;;;2.58;1.27;;;16.70;99.90;;;15.84;100.00;97626.31;4940822;28;20174;-72
2023/07/22 01:32:55;;;;;;;6.00;1.63;;;16.50;99.90;;;15.71;100.00;97638.50;4939497;28;20436;-72
2023/07/22 01:35:22;;;;;;;2.60;1.10;;;16.40;99.90;;;15.54;100.00;97643.91;4938649;28;20091;-71
2023/07/22 01:37:50;;;;;;;4.93;1.83;;;16.30;99.90;;;15.36;100.00;97646.72;4933080;28;20055;-71
2023/07/22 01:40:17;;;;;;;2.90;1.50;;;16.20;99.90;;;15.07;100.00;97643.22;4942493;28;20139;-71
2023/07/22 01:42:44;;;;;;;4.65;1.75;;;16.00;99.90;;;14.71;100.00;97643.63;4941135;28;20059;-72
2023/07/22 01:45:12;;;;;;;3.13;1.40;;;15.70;99.90;;;14.96;100.00;97653.47;4938708;28;20166;-72
2023/07/22 01:47:40;;;;;;;5.28;1.70;;;15.70;99.90;;;14.90;100.00;97651.25;4938198;28;20047;-72
2023/07/22 01:50:08;;;;;;;3.95;1.73;;;15.70;99.90;;;14.60;100.00;97663.41;4939285;28;20051;-73
2023/07/22 01:52:38;;;;;;;5.97;1.55;;;15.60;99.90;;;14.53;100.00;97674.22;4938567;28;20042;-72
2023/07/22 01:55:06;;;;;;;4.70;2.03;;;15.50;99.90;;;14.50;100.00;97684.84;4937745;28;20054;-73
2023/07/22 01:57:34;;;;;;;5.90;2.53;;;15.50;99.90;;;14.52;100.00;97693.44;4952097;28;20061;-72
2023/07/22 02:00:05;;;;;;;8.23;2.45;;;15.30;99.90;;;14.37;100.00;97703.00;4939093;28;20055;-72
2023/07/22 02:02:32;;;;;;;10.18;2.33;;;15.10;99.90;;;14.21;100.00;97711.69;4934944;28;20065;-73
2023/07/22 02:04:59;;;;;;;5.78;2.53;;;15.00;99.90;;;14.00;100.00;97731.97;4940647;28;20094;-73
2023/07/22 02:07:28;;;;;;;5.68;2.50;;;14.90;99.90;;;14.06;100.00;97738.63;4918544;29;20304;-73
2023/07/22 02:09:56;;;;;;;5.00;2.50;;;14.80;99.90;;;14.02;100.00;97745.75;4935376;28;20182;-73
2023/07/22 02:12:23;;;;;;;6.38;2.95;;;14.70;99.90;;;13.96;100.00;97758.31;4933169;28;20059;-73
2023/07/22 02:14:50;;;;;;;4.63;2.55;;;14.60;99.90;;;13.88;100.00;97763.09;4932324;28;20054;-73
2023/07/22 02:17:17;;;;;;;5.88;2.30;;;14.60;99.90;;;13.96;100.00;97766.16;4938972;28;20556;-74
2023/07/22 02:19:44;;;;;;;4.55;2.20;;;14.50;99.90;;;13.98;100.00;97769.50;4942427;28;20086;-74
2023/07/22 02:22:14;;;;;;;3.85;1.92;;;14.50;99.90;;;14.01;100.00;97771.97;4939479;28;20506;-73
2023/07/22 02:24:41;;;;;;;5.05;2.20;;;14.50;99.90;;;13.96;100.00;97774.81;4939000;28;20224;-72
2023/07/22 02:27:10;;;;;;;4.30;2.55;;;14.60;99.90;;;13.97;100.00;97789.53;4936815;28;20055;-73
2023/07/22 02:29:37;;;;;;;4.65;2.63;;;14.60;99.90;;;13.72;100.00;97796.97;4932796;28;20811;-73
2023/07/22 02:32:05;;;;;;;6.05;2.97;;;14.60;99.90;;;13.95;100.00;97804.44;4934074;28;20134;-72
2023/07/22 02:34:32;;;;;;;6.43;2.88;;;14.60;99.90;;;13.78;100.00;97807.09;4936184;28;20134;-73
2023/07/22 02:36:59;;;;;;;5.80;2.63;;;14.60;99.90;;;13.78;100.00;97807.09;4940423;28;20054;-72
2023/07/22 02:39:26;;;;;;;5.40;2.30;;;14.60;99.90;;;13.79;100.00;97807.00;4941024;28;20467;-73
2023/07/22 02:41:53;;;;;;;4.55;2.63;;;14.60;99.90;;;13.76;100.00;97814.16;4944449;28;20055;-73
2023/07/22 02:44:20;;;;;;;5.07;3.10;;;14.60;99.90;;;13.83;100.00;97812.06;4936264;28;20157;-73
2023/07/22 02:46:48;;;;;;;6.15;2.67;;;14.70;99.90;;;13.97;100.00;97813.03;4939358;28;20460;-73
2023/07/22 02:49:15;;;;;;;4.72;2.63;;;14.70;99.90;;;13.91;100.00;97813.38;4938956;28;20061;-74
2023/07/22 02:51:42;;;;;;;4.95;2.72;;;14.60;99.90;;;13.74;100.00;97810.78;4941198;28;20047;-73
2023/07/22 02:54:09;;;;;;;5.00;3.20;;;14.60;99.90;;;13.60;100.00;97801.91;4924950;28;20083;-73
2023/07/22 02:56:37;;;;;;;6.10;2.65;;;14.50;99.90;;;13.73;100.00;97815.16;4942180;28;20315;-73
2023/07/22 02:59:04;;;;;;;7.18;2.75;;;14.40;99.90;;;13.78;100.00;97815.75;4927442;28;20066;-73
2023/07/22 03:01:31;;;;;;;4.95;2.50;;;14.50;99.90;;;13.72;100.00;97810.84;4951020;28;20091;-73
2023/07/22 03:03:58;;;;;;;4.00;2.72;;;14.40;99.90;;;13.75;100.00;97817.66;4946169;28;20062;-73
2023/07/22 03:06:26;;;;;;;5.22;2.90;;;14.40;99.90;;;13.67;100.00;97812.84;4923756;28;20082;-73
2023/07/22 03:08:54;;;;;;;5.53;2.60;;;14.40;99.90;;;13.63;100.00;97810.47;4924319;28;20047;-74
2023/07/22 03:11:24;;;;;;;5.25;3.13;;;14.40;99.90;;;13.73;100.00;97817.78;4932685;28;20759;-74
2023/07/22 03:13:52;;;;;;;4.43;2.75;;;14.40;99.90;;;13.78;100.00;97825.34;4939834;28;20138;-74
2023/07/22 03:16:22;;;;;;;5.95;2.92;;;14.40;99.90;;;13.76;100.00;97822.81;4942420;28;20065;-74
2023/07/22 03:18:50;;;;;;;6.40;3.28;;;14.20;99.90;;;13.74;100.00;97816.84;4935512;28;20354;-74
2023/07/22 03:21:18;;;;;;;5.18;2.45;;;14.20;99.90;;;13.72;100.00;97821.28;4939081;28;20563;-74
2023/07/22 03:23:45;;;;;;;6.22;3.15;;;14.20;99.90;;;13.73;100.00;97815.16;4939362;28;20678;-73
2023/07/22 03:26:12;;;;;;;7.35;2.72;;;14.30;99.90;;;13.73;100.00;97819.50;4937921;28;20396;-74
2023/07/22 03:28:41;;;;;;;7.03;3.08;;;14.30;99.90;;;13.71;100.00;97821.38;4934468;28;20435;-74
2023/07/22 03:31:09;;;;;;;5.07;2.85;;;14.30;99.90;;;13.69;100.00;97825.84;4936385;28;20047;-73
2023/07/22 03:33:36;;;;;;;5.70;3.08;;;14.40;99.90;;;13.67;100.00;97823.28;4936389;28;20555;-74
2023/07/22 03:36:03;;;;;;;4.80;3.05;;;14.30;99.90;;;13.66;100.00;97821.63;4940109;28;20112;-73
2023/07/22 03:38:30;;;;;;;6.03;3.15;;;14.30;99.90;;;13.73;100.00;97827.34;4937875;28;20134;-74
2023/07/22 03:40:57;;;;;;;6.43;3.20;;;14.30;99.90;;;13.60;100.00;97822.75;4937912;28;20528;-74
2023/07/22 03:43:24;;;;;;;6.85;3.65;;;14.30;99.90;;;13.67;100.00;97827.66;4936603;28;20055;-74
2023/07/22 03:45:52;;;;;;;6.18;3.03;;;14.30;99.90;;;13.62;100.00;97827.06;4935639;28;20052;-73
2023/07/22 03:48:22;;;;;;;9.18;3.97;;;14.40;99.90;;;13.52;100.00;97829.28;4942704;28;20142;-74
2023/07/22 03:50:49;;;;;;;5.40;3.60;;;14.40;99.90;;;13.52;100.00;97830.13;4942881;28;20648;-74
2023/07/22 03:53:25;;;;;;;5.93;3.15;;;14.40;99.90;;;13.52;100.00;97832.72;4944857;28;20053;-74
2023/07/22 03:55:53;;;;;;;6.32;3.33;;;14.30;99.90;;;13.53;100.00;97833.59;4936644;28;20090;-74
2023/07/22 03:58:20;;;;;;;8.45;3.30;;;14.30;99.90;;;13.52;100.00;97826.66;4940867;28;20047;-74
2023/07/22 04:00:50;;;;;;;5.43;3.42;;;14.30;99.90;;;13.53;100.00;97824.00;4941364;28;20430;-74
2023/07/22 04:03:17;;;;;;;5.85;3.30;;;14.30;99.90;;;13.62;100.00;97827.06;4940251;28;20061;-74
2023/07/22 04:05:44;;;;;;;6.40;3.22;;;14.30;99.90;;;13.68;100.00;97824.13;4939808;28;20087;-74
2023/07/22 04:08:11;;;;;;;7.53;3.53;;;14.20;99.90;;;13.60;100.00;97830.59;4939973;28;20136;-73
2023/07/22 04:10:38;;;;;;;5.13;3.35;;;14.20;99.90;;;13.74;100.00;97836.88;4936548;28;20137;-74
2023/07/22 04:13:05;;;;;;;5.30;3.25;;;14.10;99.90;;;13.71;100.00;97832.66;4955396;28;20499;-74
2023/07/22 04:15:32;;;;;;;5.85;3.42;;;14.10;99.90;;;13.58;100.00;97837.63;4935637;28;20488;-74
2023/07/22 04:17:59;;;;;;;6.13;2.97;;;14.20;99.90;;;13.68;100.00;97837.16;4940695;28;20122;-74
2023/07/22 04:20:26;;;;;;;7.78;3.03;;;14.20;99.90;;;13.64;100.00;97827.81;4941407;28;20093;-73
2023/07/22 04:22:53;;;;;;;6.03;3.53;;;14.30;99.90;;;13.71;100.00;97827.44;4942761;28;20106;-74
2023/07/22 04:25:20;;;;;;;7.10;2.67;;;14.40;99.90;;;14.02;100.00;97828.44;4943668;28;20063;-74
2023/07/22 04:27:47;;;;;;;6.13;3.30;;;14.50;99.90;;;14.02;100.00;97826.66;4944016;28;20459;-74
2023/07/22 04:30:20;;;;;;;9.27;3.28;;;14.70;99.90;;;13.92;100.00;97822.88;4943908;28;20055;-74
2023/07/22 04:32:49;;;;;;;6.85;2.47;;;14.70;99.90;;;14.04;100.00;97812.72;4939832;28;20051;-74
2023/07/22 04:35:17;;;;;;;5.25;2.47;;;14.60;99.90;;;14.06;100.00;97821.31;4940398;28;20055;-73
2023/07/22 04:37:44;;;;;;;7.47;3.05;;;14.60;99.90;;;14.00;100.00;97815.50;4954252;28;20534;-74
2023/07/22 04:40:16;;;;;;;5.65;3.17;;;14.50;99.90;;;13.85;100.00;97815.44;4940379;28;20678;-74
2023/07/22 04:42:44;;;;;;;7.75;3.25;;;14.50;99.90;;;13.75;100.00;97809.84;4952770;28;20107;-74
2023/07/22 04:45:11;;;;;;;7.85;3.33;;;14.40;99.90;;;13.78;100.00;97820.97;4937853;28;20061;-74
2023/07/22 04:47:39;;;;;;;6.28;2.97;;;14.30;99.90;;;13.94;100.00;97817.56;4937100;28;20051;-73
2023/07/22 04:50:10;;;;;;;7.78;3.70;;;14.20;99.90;;;13.93;100.00;97826.31;4940385;28;20051;-75
2023/07/22 04:52:37;;;;;;;6.97;3.83;;;14.20;99.90;;;13.77;100.00;97819.28;4934708;28;20146;-74
2023/07/22 04:55:09;;;;;;;13.07;3.20;;;14.30;99.90;;;13.88;100.00;97836.16;4917430;28;20138;-74
2023/07/22 04:57:36;;;;;;;4.72;3.35;;;14.40;99.90;;;13.87;100.00;97826.66;4923968;28;20084;-74
2023/07/22 05:00:04;;;;;;;6.43;3.10;;;14.40;99.90;;;13.93;100.00;97829.75;4936822;28;20146;-74
2023/07/22 05:02:32;;;;;;;5.60;3.10;;;14.40;99.90;;;13.98;100.00;97835.59;4937720;28;20055;-74
2023/07/22 05:05:00;;;;;;;9.45;3.33;;;14.50;99.90;;;14.03;100.00;97827.53;4935791;28;20346;-75
2023/07/22 05:07:27;;;;;;;11.82;3.67;;;14.50;99.90;;;14.00;100.00;97832.88;4939779;28;20536;-75
2023/07/22 05:09:57;;;;;;;5.30;2.83;;;14.50;99.90;;;14.03;100.00;97827.53;4941359;28;20070;-75
2023/07/22 05:12:24;;;;;;;5.13;2.60;;;14.50;99.90;;;14.15;100.00;97826.88;4938050;28;20133;-75
2023/07/22 05:14:54;;;;;;;7.20;2.95;;;14.50;99.90;;;14.30;100.00;97832.19;4939286;28;20047;-75
2023/07/22 05:17:21;;;;;;;10.77;3.35;;;14.60;99.90;;;14.27;100.00;97821.94;4937326;28;20227;-74
2023/07/22 05:19:48;;;;;;;7.43;3.63;;;14.60;99.90;;;14.31;100.00;97819.06;4941614;28;20094;-74
2023/07/22 05:22:16;;;;;;;5.93;3.22;;;14.70;99.90;;;14.44;100.00;97819.25;4937343;28;20866;-74
2023/07/22 05:24:43;;;;;;;4.88;3.00;;;14.80;99.90;;;14.56;100.00;97817.78;4936492;28;20062;-75
2023/07/22 05:27:10;;;;;;;4.75;3.08;;;14.90;99.90;;;14.50;100.00;97815.47;4935680;28;20062;-74
2023/07/22 05:29:37;;;;;;;6.53;3.15;;;14.90;99.90;;;14.54;100.00;97820.47;4951935;28;20047;-75
2023/07/22 05:32:06;;;;;;;4.90;2.58;;;14.90;99.90;;;14.65;100.00;97819.88;4941106;28;20059;-74
2023/07/22 05:34:52;;;;;;;5.22;2.40;;;14.90;99.90;;;14.82;100.00;97817.19;4927796;28;20051;-74
2023/07/22 05:37:20;;;;;;;4.50;2.72;;;14.90;99.90;;;14.91;100.00;97810.56;4940418;28;20047;-74
2023/07/22 05:39:47;;;;;;;7.18;2.70;;;14.90;99.90;;;14.91;100.00;97815.78;4937432;28;20439;-74
2023/07/22 05:42:14;;;;;;;4.88;2.80;;;14.90;99.90;;;14.92;100.00;97811.44;4941233;28;20061;-74
2023/07/22 05:44:41;;;;;;;4.80;2.55;;;15.00;99.90;;;14.86;100.00;97810.00;4939750;28;20300;-74
2023/07/22 05:47:08;;;;;;;3.83;2.15;;;15.20;99.90;;;15.00;100.00;97817.88;4936968;28;20134;-74
2023/07/22 05:49:35;;;;;;;4.10;2.55;;;15.20;99.90;;;15.13;100.00;97809.38;4939080;28;20733;-75
2023/07/22 05:52:02;;;;;;;4.20;2.85;;;15.30;99.90;;;15.04;100.00;97800.28;4958453;28;20050;-75
2023/07/22 05:54:29;;;;;;;3.75;2.00;;;15.40;99.90;;;15.16;100.00;97801.34;4936913;28;20165;-75
2023/07/22 05:56:57;;;;;;;4.05;2.13;;;;;;;15.25;100.00;97793.78;4954233;28;20488;-75
2023/07/22 05:59:24;;;;;;;4.65;2.22;;;15.40;99.90;;;15.34;100.00;97787.19;4947404;28;20055;-74
2023/07/22 06:01:51;;;;;;;4.05;2.60;;;15.50;99.90;;;15.16;100.00;97781.25;4941951;28;20055;-75
2023/07/22 06:04:18;;;;;;;5.25;2.63;;;15.50;99.90;;;15.10;100.00;97788.59;4920910;29;20440;-75
2023/07/22 06:06:46;;;;;;;4.25;2.47;;;15.60;99.90;;;15.26;100.00;97786.81;4939875;28;20567;-74
2023/07/22 06:09:13;;;;;;;3.95;2.35;;;15.60;99.90;;;15.31;100.00;97784.75;4933485;28;20057;-74
2023/07/22 06:11:40;;;;;;;3.15;2.10;;;15.70;99.90;;;15.47;100.00;97758.56;4939010;28;20051;-75
2023/07/22 06:14:08;;;;;;;3.47;1.92;;;15.90;99.90;;;15.42;100.00;97753.59;4937907;28;20275;-75
2023/07/22 06:16:35;;;;;;;3.50;1.90;;;15.90;99.90;;;15.56;100.00;97734.44;4940973;28;20508;-74
2023/07/22 06:19:03;;;;;;;3.63;1.73;;;16.00;99.90;;;15.48;100.00;97728.81;4937900;28;20054;-75
2023/07/22 06:21:30;;;;;;;4.95;2.15;;;16.00;99.90;;;15.65;100.00;97720.81;4935673;28;20054;-75
2023/07/22 06:23:57;;;;;;;7.13;2.33;;;16.10;99.90;;;15.67;100.00;97720.72;4934110;28;20431;-75
2023/07/22 06:26:25;;;;;;;3.85;1.92;;;16.20;99.90;;;15.90;100.00;97711.50;4946424;28;20099;-75
2023/07/22 06:28:52;;;;;;;4.05;1.90;;;16.40;99.90;;;16.08;100.00;97712.13;4950532;28;20066;-75
2023/07/22 06:31:19;;;;;;;4.15;1.50;;;16.50;99.90;;;16.26;100.00;97697.00;4949619;28;20047;-75
2023/07/22 06:33:46;;;;;;;5.13;1.67;;;16.70;99.90;;;16.32;100.00;97691.38;4943778;28;20547;-75
2023/07/22 06:36:14;;;;;;;2.20;1.40;;;16.90;99.90;;;16.38;100.00;97679.69;4950509;28;20051;-76
2023/07/22 06:38:41;;;;;;;4.80;1.60;;;17.00;99.90;;;16.50;100.00;97682.34;4949139;28;20051;-74
2023/07/22 06:41:08;;;;;;;3.83;2.40;;;17.10;99.90;;;16.36;100.00;97669.28;4951839;28;20059;-75
2023/07/22 06:43:36;;;;;;;2.92;1.70;;;17.10;99.90;;;16.62;100.00;97664.97;4952828;28;20098;-75
2023/07/22 06:46:03;;;;;;;3.85;1.83;;;17.20;99.90;;;16.98;100.00;97657.41;4931864;28;20051;-75
2023/07/22 06:48:30;;;;;;;3.15;1.73;;;17.20;99.90;;;16.77;100.00;97657.06;4945271;28;20527;-75
2023/07/22 06:50:57;;;;;;;5.07;2.10;;;17.30;99.90;;;16.96;100.00;97647.03;4952360;28;20884;-75
2023/07/22 06:53:25;;;;;;;7.28;1.58;;;17.50;99.90;;;16.97;100.00;97645.25;4944167;28;20527;-76
2023/07/22 06:55:52;;;;;;;5.18;1.95;;;17.60;99.90;;;17.32;100.00;97643.69;4947243;28;20047;-75
2023/07/22 06:58:20;;;;;;;3.92;1.75;;;17.60;99.90;;;17.49;100.00;97633.78;4950670;28;20703;-76
2023/07/22 07:00:47;;;;;;;2.95;1.58;;;17.40;99.90;;;17.51;100.00;97617.00;4964612;28;20059;-76
2023/07/22 07:03:14;;;;;;;4.03;2.25;;;17.50;99.90;;;17.27;100.00;97613.47;4952320;28;20200;-75
2023/07/22 07:05:41;;;;;;;5.47;2.20;;;17.50;99.90;;;17.68;100.00;97615.81;4947395;28;20496;-76
2023/07/22 07:08:10;;;;;;;5.13;2.50;;;17.70;99.90;;;17.91;100.00;97600.25;4947648;28;20618;-75
2023/07/22 07:10:39;;;;;;;5.25;2.25;;;17.80;99.90;;;18.00;100.00;97596.13;4947876;28;20121;-76
2023/07/22 07:13:06;;;;;;;6.00;2.15;;;18.00;99.90;;;18.25;100.00;97588.13;4945816;28;20063;-76
2023/07/22 07:15:34;;;;;;;5.72;2.45;;;18.20;99.90;;;18.35;100.00;97596.16;4948657;28;20051;-76
2023/07/22 07:18:01;;;;;;;5.20;2.40;;;18.50;99.90;;;18.56;100.00;97589.28;4951129;28;20091;-76
2023/07/22 07:20:28;;;;;;;3.78;2.40;;;18.50;99.90;;;18.72;100.00;97581.09;4950334;28;20101;-76
2023/07/22 07:22:55;;;;;;;3.67;2.22;;;18.60;99.90;;;18.69;100.00;97585.75;4947625;28;20589;-76
2023/07/22 07:25:23;;;;;;;4.95;2.22;;;18.60;99.90;;;18.48;100.00;97578.53;4932136;29;20550;-76
2023/07/22 07:27:50;;;;;;;4.70;2.30;;;18.50;99.90;;;18.63;100.00;97583.59;4948836;28;20047;-76
2023/07/22 07:30:17;;;;;;;5.53;2.38;;;18.50;99.90;;;18.77;100.00;97576.38;4947518;28;20074;-76
2023/07/22 07:32:44;;;;;;;5.22;2.55;;;18.40;99.90;;;18.56;100.00;97583.19;4948860;28;20051;-76
2023/07/22 07:35:12;;;;;;;3.92;2.28;;;18.50;99.90;;;18.77;100.00;97586.91;4948341;28;20476;-76
2023/07/22 07:37:39;;;;;;;4.00;2.15;;;18.60;99.90;;;19.19;100.00;97587.19;4947069;28;20664;-76
2023/07/22 07:40:08;;;;;;;5.88;2.58;;;18.60;99.90;;;18.89;100.00;97579.03;4949202;28;20512;-76
2023/07/22 07:42:35;;;;;;;5.65;2.72;;;19.00;99.90;;;19.16;100.00;97583.97;4942629;28;20066;-77
2023/07/22 07:45:02;;;;;;;6.13;2.53;;;19.10;99.90;;;19.17;100.00;97586.44;4951621;28;20134;-76
2023/07/22 07:47:30;;;;;;;5.85;2.92;;;19.20;99.90;;;19.48;100.00;97577.94;4946658;28;20055;-77
2023/07/22 07:49:57;;;;;;;6.60;2.67;;;19.50;99.90;;;19.61;100.00;97576.88;4932444;28;20051;-76
2023/07/22 07:52:24;;;;;;;5.03;2.60;;;19.70;99.90;;;19.73;100.00;97579.50;4946622;28;20432;-76
2023/07/22 07:54:52;;;;;;;11.52;2.70;;;19.90;99.90;;;19.93;100.00;97584.00;4949368;28;20475;-77
2023/07/22 07:57:19;;;;;;;6.68;2.88;;;19.70;99.90;;;19.75;100.00;97586.34;4947960;28;20063;-75
2023/07/22 07:59:46;;;;;;;3.17;2.00;;;19.80;99.90;;;19.68;100.00;97585.09;4946946;28;20050;-77
2023/07/22 08:02:14;;;;;;;3.78;1.90;;;20.00;99.90;;;19.87;100.00;97579.25;4947756;28;20055;-76
2023/07/22 08:04:41;;;;;;;5.28;2.33;;;20.10;99.90;;;20.02;100.00;97585.91;4948203;28;20047;-76
2023/07/22 08:07:08;;;;;;;7.50;2.25;;;20.10;99.90;;;20.09;100.00;97578.34;4949920;28;20436;-76
2023/07/22 08:09:36;;;;;;;6.10;2.17;;;20.40;99.90;;;20.18;100.00;97582.84;4947882;28;20639;-76
2023/07/22 08:12:04;;;;;;;4.50;2.60;;;20.50;99.90;;;19.88;100.00;97588.81;4943363;28;20075;-76
2023/07/22 08:14:31;;;;;;;5.93;2.38;;;20.40;99.90;;;20.12;100.00;97587.81;4943592;28;20048;-77
2023/07/22 08:16:58;;;;;;;6.20;2.00;;;20.20;99.90;;;20.29;100.00;97587.25;4929348;28;20146;-76
2023/07/22 08:19:26;;;;;;;5.22;2.47;;;20.10;99.90;;;19.84;100.00;97590.03;4930745;28;20566;-76
2023/07/22 08:21:53;;;;;;;4.20;2.13;;;20.10;99.90;;;19.95;100.00;97586.53;4945811;28;20051;-76
2023/07/22 08:24:20;;;;;;;6.43;2.25;;;20.30;99.90;;;20.18;100.00;97588.13;4947122;28;20082;-76
2023/07/22 08:26:47;;;;;;;4.35;2.10;;;20.30;99.90;;;20.18;100.00;97582.03;4947583;28;20055;-77
2023/07/22 08:29:15;;;;;;;7.93;2.42;;;20.60;99.90;;;20.35;100.00;97586.75;4949548;28;20158;-76
2023/07/22 08:31:42;;;;;;;5.32;2.00;;;20.90;99.90;;;20.63;100.00;97584.50;4949230;28;20062;-75
2023/07/22 08:34:09;;;;;;;5.55;1.95;;;20.90;99.90;;;20.91;100.00;97585.66;4933424;28;20043;-76
2023/07/22 08:36:36;;;;;;;5.00;2.17;;;20.90;99.90;;;21.14;100.00;97586.31;4949283;28;20158;-76
2023/07/22 08:39:03;;;;;;;3.95;1.90;;;20.90;99.90;;;21.04;100.00;97591.56;4961166;28;20051;-76
2023/07/22 08:41:31;;;;;;;4.75;2.17;;;21.10;99.90;;;20.77;100.00;97596.53;4942307;28;20106;-76
2023/07/22 08:44:00;;;;;;;4.30;1.92;;;20.90;99.90;;;21.20;100.00;97598.19;4947651;28;20051;-76
2023/07/22 08:46:30;;;;;;;6.25;1.65;;;20.50;99.90;;;21.79;100.00;97592.16;4933735;28;20083;-77
2023/07/22 08:49:00;;;;;;;3.95;1.58;;;20.60;99.90;;;22.31;100.00;97590.19;4965070;28;20142;-76
2023/07/22 08:51:31;;;;;;;3.78;1.40;;;21.30;99.90;;;23.08;100.00;97584.97;4949694;28;20611;-76
2023/07/22 08:53:59;;;;;;;3.83;1.45;;;22.20;99.90;;;22.69;100.00;97579.72;4945029;28;20158;-76
2023/07/22 08:56:39;;;;;;;3.47;1.80;;;22.50;99.90;;;22.72;100.00;97582.09;4930263;28;20573;-76
2023/07/22 08:59:07;;;;;;;6.70;1.50;;;22.70;99.90;;;22.23;100.00;97586.56;4965302;28;20130;-75
2023/07/22 09:01:35;;;;;;;9.65;1.92;;;22.60;99.90;;;22.23;100.00;97582.09;4947448;28;20063;-76
2023/07/22 09:04:04;;;;;;;3.83;1.67;;;22.70;99.90;;;22.63;100.00;97586.44;4949383;28;20054;-75
2023/07/22 09:06:32;;;;;;;5.78;1.60;;;22.60;99.90;;;22.79;100.00;97561.22;4950536;28;20078;-76
2023/07/22 09:09:00;;;;;;;5.43;1.90;;;22.70;99.90;;;23.20;100.00;97567.13;4949461;28;20082;-76
2023/07/22 09:11:28;;;;;;;5.78;1.73;;;23.70;99.90;;;23.00;100.00;97574.28;4948186;28;20059;-77
2023/07/22 09:13:56;;;;;;;4.22;1.30;;;23.50;99.80;;;23.00;100.00;97561.03;4949527;28;20080;-75
2023/07/22 09:16:27;;;;;;;5.47;1.88;;;23.80;99.90;;;23.06;100.00;97553.38;4949606;28;20062;-74
2023/07/22 09:18:59;;;;;;;3.20;1.70;;;24.30;98.40;;;23.07;100.00;97557.66;4943762;28;20063;-75
2023/07/22 09:21:27;;;;;;;6.00;1.50;;;23.70;98.00;;;22.68;100.00;97556.91;4947498;28;20055;-74
2023/07/22 09:23:58;;;;;;;10.63;1.73;;;23.80;99.80;;;22.66;100.00;97564.97;4947447;28;20612;-76
2023/07/22 09:26:26;;;;;;;2.70;1.42;;;23.80;99.30;;;23.60;100.00;97561.47;4946238;28;20110;-76
2023/07/22 09:28:57;;;;;;;5.88;1.23;;;24.20;99.40;;;24.82;100.00;97563.69;4951004;28;20530;-76
2023/07/22 09:31:27;;;;;;;4.75;1.30;;;24.70;98.80;;;24.28;100.00;97568.19;4950431;28;20377;-77
2023/07/22 09:33:54;;;;;;;2.67;1.20;;;24.50;98.10;;;23.98;100.00;97563.09;4950343;28;20054;-77
2023/07/22 09:36:22;;;;;;;4.70;1.65;;;23.50;98.70;;;23.55;100.00;97572.53;4954313;28;20051;-77
2023/07/22 09:39:03;;;;;;;3.55;1.30;;;23.40;99.40;;;23.43;100.00;97564.94;4963833;28;20154;-75
2023/07/22 09:41:31;;;;;;;3.87;1.90;;;;;;;22.59;100.00;97571.81;4948478;28;20439;-77
2023/07/22 09:44:03;;;;;;;18.02;2.38;;;22.70;98.30;;;22.82;100.00;97569.69;4950229;28;20065;-77
2023/07/22 09:46:33;;;;;;;6.35;1.83;;;22.80;99.50;;;23.03;100.00;97564.22;4948331;28;20134;-77
2023/07/22 09:49:05;;;;;;;3.67;1.60;;;23.20;99.90;;;22.95;100.00;97564.91;4948328;28;20054;-77
2023/07/22 09:51:40;;;;;;;2.22;1.17;;;22.90;98.70;;;23.59;100.00;97555.34;4947964;28;20123;-77
2023/07/22 09:54:30;;;;;;;3.72;1.48;;;23.20;99.30;;;23.67;100.00;97564.38;4950990;28;20077;-76
2023/07/22 09:56:58;;;;;;;3.33;1.03;;;23.80;98.70;;;23.55;100.00;97547.84;4952014;28;20524;-76
2023/07/22 09:59:30;;;;;;;3.00;1.30;;;24.20;98.50;;;24.19;100.00;97535.44;4950902;28;20326;-77
2023/07/22 10:02:02;;;;;;;3.33;1.30;;;24.40;98.60;;;24.87;100.00;97539.31;4944990;28;20082;-76
2023/07/22 10:04:34;;;;;;;5.53;1.30;;;24.80;99.70;;;24.25;100.00;97532.19;4961569;28;20058;-77
2023/07/22 10:07:03;;;;;;;4.10;1.52;;;24.50;97.40;;;23.65;100.00;97548.66;4947216;28;20697;-77
2023/07/22 10:09:32;;;;;;;6.25;1.60;;;24.40;98.70;;;23.23;100.00;97554.41;4942883;28;20043;-77
2023/07/22 10:12:00;;;;;;;4.05;1.50;;;24.00;96.90;;;23.91;100.00;97547.94;4948796;28;20058;-77
2023/07/22 10:14:27;;;;;;;4.20;1.60;;;24.10;96.30;;;23.76;100.00;97544.97;4956054;28;20304;-76
2023/07/22 10:16:59;;;;;;;4.93;1.75;;;24.10;96.50;;;24.46;100.00;97544.31;4940799;28;20475;-76